首页
METAR-TAF:

METAR-TAF

机场 :

皮斯里弗, 艾伯塔, 加拿大

纬度: 56-14N, 经度: 117-26W, 海拔: 571米

当前天气观测

该预报发布于48分钟前的17:00 UTC
风速16节,风向西,有时为23节阵风
温度 15°C
湿度 55%
气压 1007 hPa
能見度: 24.1公里
少量云层高于5500英尺
少量云层高于11000英尺
少量云层高于20000英尺

METAR: CYPE 081700Z 27016G23KT 15SM FEW055 FEW110 FEW200 15/06 A2975 RMK CU1AC1CI1 CU TR AC TR CI TR SLP085 DENSITY ALT 2600FT

时间: 11:48 (17:48 UTC)

预报

该预报发布于5小时和10分钟前的12:38 UTC
预报有效从08日的 13点(UTC)到 09日的 01点(UTC)
风速8节,风向西
能見度: 10公里
散云层高于3000英尺
成为
从 08日的 14点(UTC)到 08日的 16点(UTC)
风速12节,风向西
从 08日的 1800点(UTC)
风速12节,风向西,有时为22节阵风
能見度: 10公里
多云层高于4000英尺
短暂存在
从 08日的 18点(UTC)到 09日的 01点(UTC)
能見度: 10公里
阴天层高于4000英尺
小阵雨

TAF: CYPE 081238Z 0813/0901 26008KT P6SM SCT030 BECMG 0814/0816 28012KT FM081800 28012G22KT P6SM BKN040 TEMPO 0818/0901 P6SM -SHRA OVC040 RMK NXT FCST BY 081900Z

超过4000个机场的气象观测和天气预报(METAR&TAF报告)。

可查询的气象台以黄色和红色小点在地图上表示。

将鼠标移到小点上方,可查看气象台名称。

然后点击查看天气观测和预报。

如需切换地图:点击带黑十字的绿色按钮放大地图;点击带横线的绿色按钮缩小地图;或者点击绿色箭头查看邻近地区的地图。


METAR-TAF: